createdAt,value
2022-09-30T00:02:18.968Z,11.70
2022-09-30T00:04:45.920Z,12.88
2022-09-30T00:07:12.988Z,13.82
2022-09-30T00:09:40.010Z,12.75
2022-09-30T00:12:07.057Z,13.88
2022-09-30T00:14:34.132Z,12.32
2022-09-30T00:17:01.207Z,13.70
2022-09-30T00:19:28.227Z,14.23
2022-09-30T00:21:55.251Z,14.55
2022-09-30T00:24:22.333Z,15.63
2022-09-30T00:26:49.677Z,15.23
2022-09-30T00:29:16.742Z,15.90
2022-09-30T00:31:43.885Z,15.90
2022-09-30T00:34:13.834Z,14.82
2022-09-30T00:36:41.152Z,15.52
2022-09-30T00:39:09.314Z,15.57
2022-09-30T00:41:37.474Z,15.00
2022-09-30T00:44:24.424Z,15.18
2022-09-30T00:46:51.460Z,14.98
2022-09-30T00:49:24.454Z,15.95
2022-09-30T00:51:56.814Z,14.30
2022-09-30T00:54:28.942Z,13.98
2022-09-30T00:57:01.198Z,15.13
2022-09-30T00:59:33.190Z,14.18
2022-09-30T01:02:01.271Z,12.88
2022-09-30T01:04:30.656Z,12.90
2022-09-30T01:07:01.782Z,13.38
2022-09-30T01:09:31.210Z,15.13
2022-09-30T01:11:58.294Z,12.40
2022-09-30T01:14:26.194Z,13.25
2022-09-30T01:16:56.885Z,12.60
2022-09-30T01:19:42.320Z,12.50
2022-09-30T01:22:18.371Z,12.05
2022-09-30T01:24:48.107Z,11.75
2022-09-30T01:27:18.005Z,12.10
2022-09-30T01:29:45.044Z,10.57
2022-09-30T01:32:24.314Z,10.10
2022-09-30T01:35:04.545Z,11.05
2022-09-30T01:37:45.361Z,10.05
2022-09-30T01:40:22.519Z,11.00
2022-09-30T01:42:57.046Z,9.95
2022-09-30T01:45:38.281Z,7.65
2022-09-30T01:48:21.790Z,8.52
2022-09-30T01:51:00.533Z,6.68
2022-09-30T01:53:30.641Z,8.65
2022-09-30T01:56:06.502Z,9.18
2022-09-30T01:58:43.027Z,8.52
2022-09-30T02:01:13.940Z,8.70
2022-09-30T02:03:45.505Z,9.02
2022-09-30T02:06:16.082Z,8.73
2022-09-30T02:08:50.185Z,9.13
2022-09-30T02:11:26.222Z,9.05
2022-09-30T02:14:00.247Z,9.55
2022-09-30T02:16:30.139Z,9.02
2022-09-30T02:19:01.606Z,7.47
2022-09-30T02:21:32.662Z,8.30
2022-09-30T02:24:05.568Z,8.60
2022-09-30T02:26:35.393Z,9.45
2022-09-30T02:29:05.404Z,8.93
2022-09-30T02:31:34.148Z,8.10
2022-09-30T02:34:05.169Z,8.65
2022-09-30T02:36:32.163Z,8.93
2022-09-30T02:39:05.897Z,8.52
2022-09-30T02:41:35.757Z,9.05
2022-09-30T02:44:03.205Z,8.85
2022-09-30T02:46:50.601Z,8.88
2022-09-30T02:49:24.132Z,8.85
2022-09-30T02:51:54.019Z,8.15
2022-09-30T02:54:36.520Z,8.52
2022-09-30T02:57:18.708Z,9.07
2022-09-30T02:59:52.619Z,8.93
2022-09-30T03:04:47.373Z,8.15
2022-09-30T03:07:14.648Z,9.05
2022-09-30T03:09:41.843Z,8.68
2022-09-30T03:12:12.703Z,8.38
2022-09-30T03:14:51.526Z,8.75
2022-09-30T03:17:31.322Z,8.25
2022-09-30T03:20:04.261Z,7.95
2022-09-30T03:22:43.675Z,7.40
2022-09-30T03:25:22.369Z,6.80
2022-09-30T03:28:15.825Z,7.80
2022-09-30T03:30:54.884Z,5.32
2022-09-30T03:33:27.810Z,7.22
2022-09-30T03:36:00.683Z,5.82
2022-09-30T03:38:39.681Z,7.88
2022-09-30T03:41:10.374Z,9.02
2022-09-30T03:43:46.511Z,6.90
2022-09-30T03:46:25.819Z,7.13
2022-09-30T03:48:55.025Z,8.75
2022-09-30T03:51:24.937Z,9.05
2022-09-30T03:53:53.331Z,9.23
2022-09-30T03:56:30.198Z,9.65
2022-09-30T03:58:57.289Z,8.48
2022-09-30T04:01:24.688Z,9.38
2022-09-30T04:03:52.545Z,8.77
2022-09-30T04:06:24.135Z,9.02
2022-09-30T04:08:51.407Z,10.00
2022-09-30T04:11:18.413Z,9.90
2022-09-30T04:13:45.506Z,9.57
2022-09-30T04:16:12.517Z,9.23
2022-09-30T04:18:39.896Z,7.72
2022-09-30T04:21:07.753Z,9.45
2022-09-30T04:23:38.320Z,8.35
2022-09-30T04:26:06.984Z,9.63
2022-09-30T04:28:35.610Z,8.60
2022-09-30T04:31:03.586Z,7.85
2022-09-30T04:33:30.705Z,9.35
2022-09-30T04:35:58.352Z,8.23
2022-09-30T04:38:26.120Z,8.75
2022-09-30T04:40:54.577Z,7.53
2022-09-30T04:43:23.413Z,7.72
2022-09-30T04:45:55.051Z,8.05
2022-09-30T04:48:24.499Z,9.20
2022-09-30T04:50:51.587Z,8.15
2022-09-30T04:53:18.743Z,9.88
2022-09-30T04:55:46.041Z,8.68
2022-09-30T04:58:13.335Z,8.43
2022-09-30T05:00:40.060Z,8.70
2022-09-30T05:03:06.742Z,8.02
2022-09-30T05:05:33.666Z,8.23
2022-09-30T05:08:04.704Z,8.20
2022-09-30T05:10:31.924Z,8.32
2022-09-30T05:12:59.383Z,9.10
2022-09-30T05:15:26.785Z,8.30
2022-09-30T05:17:53.934Z,9.25
2022-09-30T05:20:21.482Z,8.43
2022-09-30T05:22:53.201Z,8.45
2022-09-30T05:25:19.838Z,9.27
2022-09-30T05:27:49.781Z,8.05
2022-09-30T05:30:16.726Z,11.00
2022-09-30T05:32:43.299Z,11.13
2022-09-30T05:35:12.062Z,10.18
2022-09-30T05:37:38.926Z,10.18
2022-09-30T05:40:06.553Z,9.65
2022-09-30T05:42:35.880Z,10.15
2022-09-30T05:45:06.559Z,11.77
2022-09-30T05:47:34.271Z,10.45
2022-09-30T05:50:00.879Z,10.32
2022-09-30T05:52:28.220Z,9.77
2022-09-30T05:54:56.259Z,10.40
2022-09-30T05:57:22.848Z,10.75
2022-09-30T05:59:49.461Z,10.10
2022-09-30T06:02:16.149Z,10.15
2022-09-30T06:04:42.800Z,10.18
2022-09-30T06:07:10.608Z,8.82
2022-09-30T06:09:37.512Z,11.07
2022-09-30T06:12:06.633Z,10.77
2022-09-30T06:14:33.278Z,10.73
2022-09-30T06:17:02.855Z,10.80
2022-09-30T06:19:30.869Z,11.18
2022-09-30T06:21:58.324Z,12.15
2022-09-30T06:24:25.272Z,12.63
2022-09-30T06:26:51.952Z,14.50
2022-09-30T06:29:19.497Z,13.82
2022-09-30T06:31:46.136Z,12.60
2022-09-30T06:34:12.788Z,14.80
2022-09-30T06:36:39.376Z,14.55
2022-09-30T06:39:09.045Z,13.73
2022-09-30T06:41:40.427Z,13.90
2022-09-30T06:44:07.574Z,13.80
2022-09-30T06:46:38.200Z,15.07
2022-09-30T06:49:13.740Z,14.05
2022-09-30T06:51:41.937Z,13.73
2022-09-30T06:54:09.166Z,13.40
2022-09-30T06:56:36.934Z,13.13
2022-09-30T06:59:04.449Z,13.75
2022-09-30T07:01:31.541Z,11.07
2022-09-30T07:03:58.659Z,11.07
2022-09-30T07:06:26.329Z,11.77
2022-09-30T07:08:54.118Z,9.98
2022-09-30T07:11:21.154Z,11.60
2022-09-30T07:13:49.231Z,10.40
2022-09-30T07:16:18.038Z,10.68
2022-09-30T07:18:45.664Z,9.77
2022-09-30T07:21:15.714Z,11.32
2022-09-30T07:23:47.199Z,9.50
2022-09-30T07:26:24.370Z,7.55
2022-09-30T07:28:52.215Z,8.20
2022-09-30T07:31:32.412Z,6.70
2022-09-30T07:34:01.245Z,5.57
2022-09-30T07:36:32.517Z,5.90
2022-09-30T07:39:05.561Z,5.03
2022-09-30T07:41:33.514Z,5.82
2022-09-30T07:44:00.593Z,5.05
2022-09-30T07:46:29.843Z,3.80
2022-09-30T07:49:00.661Z,4.07
2022-09-30T07:51:30.994Z,5.78
2022-09-30T07:53:59.396Z,5.70
2022-09-30T07:56:26.957Z,5.97
2022-09-30T07:58:55.472Z,6.65
2022-09-30T08:01:22.697Z,6.53
2022-09-30T08:03:53.277Z,5.47
2022-09-30T08:06:20.769Z,4.72
2022-09-30T08:08:47.888Z,5.40
2022-09-30T08:11:15.041Z,6.55
2022-09-30T08:13:42.209Z,4.85
2022-09-30T08:16:09.584Z,5.43
2022-09-30T08:18:36.610Z,5.05
2022-09-30T08:21:07.203Z,6.15
2022-09-30T08:23:34.899Z,5.75
2022-09-30T08:26:09.310Z,6.03
2022-09-30T08:28:37.741Z,5.50
2022-09-30T08:31:12.182Z,5.30
2022-09-30T08:33:39.940Z,5.10
2022-09-30T08:36:08.362Z,4.20
2022-09-30T08:38:35.711Z,3.45
2022-09-30T08:41:21.306Z,3.90
2022-09-30T08:44:00.957Z,4.38
2022-09-30T08:46:27.971Z,3.95
2022-09-30T08:49:03.333Z,3.95
2022-09-30T08:51:39.092Z,3.38
2022-09-30T08:54:10.359Z,4.13
2022-09-30T08:56:37.428Z,3.78
2022-09-30T08:59:28.429Z,3.83
2022-09-30T09:02:05.028Z,4.80
2022-09-30T09:04:32.188Z,4.65
2022-09-30T09:07:01.936Z,5.50
2022-09-30T09:09:49.335Z,3.55
2022-09-30T09:12:22.595Z,3.38
2022-09-30T09:14:55.634Z,2.75
2022-09-30T09:17:25.505Z,2.65
2022-09-30T09:20:10.532Z,3.75
2022-09-30T09:22:38.246Z,3.72
2022-09-30T09:25:05.834Z,3.15
2022-09-30T09:27:51.566Z,3.17
2022-09-30T09:30:22.899Z,3.30
2022-09-30T09:32:55.280Z,2.75
2022-09-30T09:35:34.433Z,2.63
2022-09-30T09:38:20.225Z,2.30
2022-09-30T09:40:59.138Z,2.05
2022-09-30T09:43:33.201Z,2.40
2022-09-30T09:46:16.000Z,1.75
2022-09-30T09:48:44.744Z,2.10
2022-09-30T09:51:29.388Z,3.88
2022-09-30T09:53:58.610Z,4.45
2022-09-30T09:56:32.332Z,4.32
2022-09-30T09:59:06.963Z,3.63
2022-09-30T10:01:34.681Z,2.78
2022-09-30T10:04:21.952Z,2.55
2022-09-30T10:06:54.935Z,2.10
2022-09-30T10:09:35.263Z,2.08
2022-09-30T10:12:08.442Z,2.15
2022-09-30T10:14:35.437Z,2.10
2022-09-30T10:17:03.195Z,1.92
2022-09-30T10:19:31.459Z,1.50
2022-09-30T10:22:11.847Z,1.35
2022-09-30T10:24:39.993Z,1.40
2022-09-30T10:27:27.969Z,1.83
2022-09-30T10:29:54.990Z,2.13
2022-09-30T10:32:22.449Z,1.52
2022-09-30T10:34:55.391Z,1.45
2022-09-30T10:37:23.612Z,1.60
2022-09-30T10:39:58.525Z,1.70
2022-09-30T10:42:27.235Z,1.48
2022-09-30T10:44:54.355Z,1.90
2022-09-30T10:47:23.000Z,1.40
2022-09-30T10:49:52.051Z,1.67
2022-09-30T10:52:21.852Z,1.40
2022-09-30T10:54:55.681Z,1.38
2022-09-30T10:57:38.747Z,1.65
2022-09-30T11:00:07.896Z,1.55
2022-09-30T11:02:38.062Z,1.63
2022-09-30T11:05:14.613Z,1.40
2022-09-30T11:07:50.727Z,8.57
2022-09-30T11:10:25.345Z,4.38
2022-09-30T11:13:13.745Z,2.67
2022-09-30T11:15:46.503Z,3.75
2022-09-30T11:18:17.694Z,2.20
2022-09-30T11:20:48.931Z,1.58
2022-09-30T11:23:33.383Z,1.75
2022-09-30T11:26:12.407Z,1.58
2022-09-30T11:28:58.043Z,4.20
2022-09-30T11:31:25.099Z,1.63
2022-09-30T11:33:54.873Z,1.75
2022-09-30T11:36:45.752Z,1.20
2022-09-30T11:39:19.036Z,1.80
2022-09-30T11:41:50.259Z,1.63
2022-09-30T11:44:23.533Z,2.13
2022-09-30T11:47:09.396Z,1.70
2022-09-30T11:49:36.351Z,2.50
2022-09-30T11:52:26.457Z,2.08
2022-09-30T11:55:10.629Z,2.20
2022-09-30T11:57:53.806Z,1.95
2022-09-30T12:00:21.509Z,1.83
2022-09-30T12:02:48.741Z,1.63
2022-09-30T12:05:18.680Z,2.17
2022-09-30T12:07:45.682Z,1.80
2022-09-30T12:10:26.252Z,2.17
2022-09-30T12:13:05.524Z,1.90
2022-09-30T12:15:33.690Z,1.83
2022-09-30T12:18:11.551Z,1.77
2022-09-30T12:20:54.334Z,1.80
2022-09-30T12:23:31.393Z,1.73
2022-09-30T12:25:59.641Z,2.78
2022-09-30T12:29:04.051Z,2.58
2022-09-30T12:31:34.071Z,1.98
2022-09-30T12:34:01.125Z,2.63
2022-09-30T12:36:39.977Z,1.75
2022-09-30T12:39:18.677Z,2.00
2022-09-30T12:41:48.711Z,2.10
2022-09-30T12:44:16.620Z,1.80
2022-09-30T12:46:52.824Z,2.03
2022-09-30T12:49:23.480Z,1.92
2022-09-30T12:51:51.710Z,1.88
2022-09-30T12:54:22.130Z,1.67
2022-09-30T12:56:54.391Z,1.77
2022-09-30T12:59:26.096Z,1.95
2022-09-30T13:01:53.255Z,1.80
2022-09-30T13:04:35.625Z,1.73
2022-09-30T13:07:02.629Z,1.55
2022-09-30T13:09:56.630Z,1.88
2022-09-30T13:12:40.643Z,1.90
2022-09-30T13:15:27.080Z,1.73
2022-09-30T13:17:54.081Z,1.77
2022-09-30T13:20:40.406Z,1.65
2022-09-30T13:23:07.365Z,1.92
2022-09-30T13:25:53.811Z,1.55
2022-09-30T13:28:24.412Z,1.27
2022-09-30T13:31:11.468Z,2.17
2022-09-30T13:33:42.869Z,1.38
2022-09-30T13:36:17.578Z,2.15
2022-09-30T13:38:44.707Z,1.80
2022-09-30T13:41:17.033Z,1.55
2022-09-30T13:43:46.377Z,1.95
2022-09-30T13:46:29.618Z,1.60
2022-09-30T13:49:02.690Z,2.20
2022-09-30T13:51:32.968Z,3.05
2022-09-30T13:54:03.722Z,1.63
2022-09-30T13:56:35.386Z,1.67
2022-09-30T13:59:13.455Z,1.83
2022-09-30T14:02:20.146Z,2.03
2022-09-30T14:04:55.099Z,1.70
2022-09-30T14:07:32.592Z,1.97
2022-09-30T14:10:18.639Z,1.70
2022-09-30T14:12:58.354Z,1.70
2022-09-30T14:15:31.804Z,1.33
2022-09-30T14:18:07.234Z,1.45
2022-09-30T14:20:49.803Z,1.63
2022-09-30T14:23:17.759Z,1.85
2022-09-30T14:25:53.553Z,1.60
2022-09-30T14:28:29.102Z,2.13
2022-09-30T14:31:10.079Z,2.30
2022-09-30T14:33:39.463Z,1.50
2022-09-30T14:36:14.498Z,1.55
2022-09-30T14:38:43.592Z,2.15
2022-09-30T14:41:15.438Z,1.77
2022-09-30T14:43:44.017Z,2.20
2022-09-30T14:46:26.577Z,1.73
2022-09-30T14:48:54.255Z,1.67
2022-09-30T14:51:23.823Z,1.85
2022-09-30T14:53:58.315Z,2.05
2022-09-30T14:56:32.612Z,1.92
2022-09-30T14:59:00.819Z,1.95
2022-09-30T15:01:31.439Z,1.90
2022-09-30T15:04:11.438Z,1.60
2022-09-30T15:06:41.323Z,2.17
2022-09-30T15:09:09.402Z,2.20
2022-09-30T15:11:39.758Z,2.10
2022-09-30T15:14:09.918Z,2.30
2022-09-30T15:16:45.204Z,2.30
2022-09-30T15:19:19.871Z,1.92
2022-09-30T15:21:48.507Z,2.47
2022-09-30T15:24:16.281Z,2.28
2022-09-30T15:26:43.826Z,1.85
2022-09-30T15:29:13.334Z,2.30
2022-09-30T15:31:51.473Z,1.98
2022-09-30T15:34:23.221Z,2.15
2022-09-30T15:36:59.650Z,1.63
2022-09-30T15:39:49.905Z,2.58
2022-09-30T15:42:37.133Z,2.42
2022-09-30T15:45:24.429Z,2.17
2022-09-30T15:48:14.585Z,1.65
2022-09-30T15:50:46.079Z,2.22
2022-09-30T15:53:25.329Z,1.75
2022-09-30T15:55:56.645Z,2.30
2022-09-30T15:58:40.286Z,1.95
2022-09-30T16:01:21.502Z,2.33
2022-09-30T16:03:50.568Z,1.80
2022-09-30T16:06:22.834Z,1.75
2022-09-30T16:08:53.873Z,2.28
2022-09-30T16:11:24.382Z,3.10
2022-09-30T16:13:51.727Z,39.17
2022-09-30T16:16:23.856Z,7.20
2022-09-30T16:18:51.846Z,3.20
2022-09-30T16:21:30.313Z,5.32
2022-09-30T16:23:57.654Z,3.65
2022-09-30T16:26:30.136Z,2.50
2022-09-30T16:29:01.731Z,8.23
2022-09-30T16:31:29.939Z,3.38
2022-09-30T16:33:57.018Z,2.58
2022-09-30T16:36:24.060Z,3.80
2022-09-30T16:38:51.025Z,2.42
2022-09-30T16:41:18.073Z,2.28
2022-09-30T16:43:45.075Z,2.40
2022-09-30T16:46:12.832Z,2.65
2022-09-30T16:48:39.937Z,3.00
2022-09-30T16:51:16.917Z,2.53
2022-09-30T16:53:44.066Z,2.47
2022-09-30T16:56:18.351Z,2.67
2022-09-30T16:58:46.330Z,2.75
2022-09-30T17:01:20.482Z,2.85
2022-09-30T17:03:47.762Z,2.80
2022-09-30T17:06:15.574Z,2.92
2022-09-30T17:08:42.606Z,3.65
2022-09-30T17:11:10.933Z,2.83
2022-09-30T17:13:38.598Z,2.85
2022-09-30T17:16:05.782Z,3.53
2022-09-30T17:18:32.932Z,3.67
2022-09-30T17:21:01.280Z,3.40
2022-09-30T17:23:28.334Z,3.38
2022-09-30T17:25:55.648Z,3.35
2022-09-30T17:28:22.915Z,4.50
2022-09-30T17:30:50.450Z,4.00
2022-09-30T17:33:20.888Z,4.15
2022-09-30T17:35:59.289Z,4.13
2022-09-30T17:38:26.254Z,3.28
2022-09-30T17:41:12.197Z,3.50
2022-09-30T17:43:39.186Z,3.17
2022-09-30T17:46:06.523Z,3.05
2022-09-30T17:48:33.607Z,3.63
2022-09-30T17:51:00.641Z,3.22
2022-09-30T17:53:30.747Z,3.25
2022-09-30T17:56:02.114Z,3.40
2022-09-30T17:58:29.233Z,3.30
2022-09-30T18:00:59.883Z,3.45
2022-09-30T18:03:28.119Z,3.97
2022-09-30T18:05:58.742Z,4.60
2022-09-30T18:08:26.009Z,3.55
2022-09-30T18:10:53.362Z,4.13
2022-09-30T18:13:20.390Z,3.88
2022-09-30T18:15:47.730Z,2.80
2022-09-30T18:18:14.694Z,3.25
2022-09-30T18:20:45.924Z,3.33
2022-09-30T18:23:12.966Z,3.20
2022-09-30T18:25:42.975Z,3.67
2022-09-30T18:28:11.046Z,3.83
2022-09-30T18:30:38.797Z,8.85
2022-09-30T18:33:07.063Z,7.63
2022-09-30T18:35:38.399Z,4.18
2022-09-30T18:38:06.518Z,4.40
2022-09-30T18:40:33.793Z,4.30
2022-09-30T18:43:02.531Z,3.75
2022-09-30T18:45:30.911Z,5.93
2022-09-30T18:47:59.502Z,8.85
2022-09-30T18:50:28.146Z,9.85
2022-09-30T18:52:56.311Z,14.48
2022-09-30T18:55:23.403Z,6.57
2022-09-30T18:57:53.787Z,14.40
2022-09-30T19:00:20.799Z,15.55
2022-09-30T19:02:47.826Z,8.85
2022-09-30T19:05:16.626Z,6.70
2022-09-30T19:07:43.710Z,4.60
2022-09-30T19:10:15.599Z,4.85
2022-09-30T19:12:44.572Z,7.95
2022-09-30T19:15:13.798Z,6.45
2022-09-30T19:17:40.811Z,13.32
2022-09-30T19:20:08.261Z,6.65
2022-09-30T19:22:37.119Z,9.20
2022-09-30T19:25:08.526Z,13.10
2022-09-30T19:27:37.666Z,7.78
2022-09-30T19:30:06.262Z,13.32
2022-09-30T19:32:36.635Z,13.57
2022-09-30T19:35:06.704Z,8.35
2022-09-30T19:37:34.879Z,7.85
2022-09-30T19:40:12.978Z,6.70
2022-09-30T19:42:46.318Z,6.68
2022-09-30T19:45:15.885Z,7.40
2022-09-30T19:47:43.023Z,6.53
2022-09-30T19:50:10.111Z,4.47
2022-09-30T19:52:42.580Z,4.80
2022-09-30T19:55:17.109Z,5.90
2022-09-30T19:57:44.270Z,6.22
2022-09-30T20:00:12.839Z,5.13
2022-09-30T20:02:40.074Z,5.72
2022-09-30T20:05:07.509Z,4.35
2022-09-30T20:07:35.089Z,5.03
2022-09-30T20:10:02.244Z,4.95
2022-09-30T20:12:29.151Z,5.15
2022-09-30T20:15:14.557Z,4.20
2022-09-30T20:17:41.317Z,3.72
2022-09-30T20:20:27.227Z,3.45
2022-09-30T20:22:54.005Z,4.07
2022-09-30T20:25:20.706Z,4.68
2022-09-30T20:27:52.003Z,5.18
2022-09-30T20:30:19.812Z,4.97
2022-09-30T20:32:46.421Z,4.85
2022-09-30T20:35:13.177Z,4.72
2022-09-30T20:37:40.673Z,5.03
2022-09-30T20:40:09.187Z,5.00
2022-09-30T20:42:38.332Z,4.63
2022-09-30T20:45:06.480Z,4.30
2022-09-30T20:47:33.446Z,5.25
2022-09-30T20:50:00.473Z,6.25
2022-09-30T20:52:28.784Z,6.03
2022-09-30T20:55:00.058Z,6.32
2022-09-30T20:57:29.921Z,6.28
2022-09-30T20:59:57.374Z,6.43
2022-09-30T21:02:27.894Z,6.68
2022-09-30T21:04:57.539Z,7.28
2022-09-30T21:07:25.319Z,6.63
2022-09-30T21:09:52.392Z,6.70
2022-09-30T21:12:19.493Z,6.90
2022-09-30T21:14:46.573Z,5.95
2022-09-30T21:17:13.622Z,7.00
2022-09-30T21:19:40.657Z,7.20
2022-09-30T21:22:07.733Z,6.90
2022-09-30T21:24:34.728Z,7.63
2022-09-30T21:27:05.597Z,8.07
2022-09-30T21:29:32.718Z,8.20
2022-09-30T21:31:59.824Z,8.25
2022-09-30T21:34:26.919Z,7.43
2022-09-30T21:36:54.140Z,8.57
2022-09-30T21:39:21.119Z,7.30
2022-09-30T21:41:48.700Z,7.65
2022-09-30T21:44:16.651Z,8.10
2022-09-30T21:46:48.264Z,6.65
2022-09-30T21:49:20.399Z,7.78
2022-09-30T21:51:47.593Z,6.78
2022-09-30T21:54:15.044Z,7.35
2022-09-30T21:56:42.788Z,7.07
2022-09-30T21:59:10.120Z,7.30
2022-09-30T22:01:37.384Z,6.43
2022-09-30T22:04:04.763Z,7.13
2022-09-30T22:06:31.922Z,6.65
2022-09-30T22:09:01.545Z,6.40
2022-09-30T22:11:29.358Z,5.72
2022-09-30T22:13:57.469Z,5.88
2022-09-30T22:16:29.660Z,5.85
2022-09-30T22:19:00.599Z,5.72
2022-09-30T22:21:31.481Z,6.22
2022-09-30T22:24:00.083Z,6.00
2022-09-30T22:26:27.454Z,6.40
2022-09-30T22:29:00.023Z,6.55
2022-09-30T22:31:28.985Z,5.60
2022-09-30T22:34:17.179Z,6.32
2022-09-30T22:37:02.670Z,6.15
2022-09-30T22:39:29.869Z,6.20
2022-09-30T22:41:57.623Z,6.53
2022-09-30T22:44:35.290Z,6.30
2022-09-30T22:47:02.889Z,6.32
2022-09-30T22:49:33.461Z,7.15
2022-09-30T22:52:01.722Z,7.05
2022-09-30T22:54:29.076Z,6.05
2022-09-30T22:56:58.270Z,7.18
2022-09-30T22:59:25.549Z,6.40
2022-09-30T23:01:52.200Z,7.38
2022-09-30T23:04:19.138Z,6.38
2022-09-30T23:06:51.046Z,6.13
2022-09-30T23:09:20.587Z,6.78
2022-09-30T23:11:48.302Z,7.57
2022-09-30T23:14:14.941Z,6.28
2022-09-30T23:16:42.724Z,6.43
2022-09-30T23:19:09.377Z,6.85
2022-09-30T23:21:36.430Z,6.65
2022-09-30T23:24:03.711Z,6.68
2022-09-30T23:26:31.072Z,5.82
2022-09-30T23:29:01.721Z,7.00
2022-09-30T23:31:29.225Z,6.28
2022-09-30T23:33:58.350Z,6.45
2022-09-30T23:36:30.308Z,6.20
2022-09-30T23:39:12.296Z,6.05
2022-09-30T23:41:39.176Z,6.18
2022-09-30T23:44:05.832Z,5.22
2022-09-30T23:46:32.540Z,5.47
2022-09-30T23:48:59.226Z,5.80
2022-09-30T23:51:25.896Z,6.18
2022-09-30T23:53:52.587Z,6.07
2022-09-30T23:56:19.667Z,4.80
2022-09-30T23:58:46.889Z,6.53
